createdAt,value
2023-03-08T00:02:06.046Z,10.97
2023-03-08T00:04:32.898Z,9.77
2023-03-08T00:06:59.589Z,7.63
2023-03-08T00:09:26.415Z,7.77
2023-03-08T00:11:53.148Z,7.30
2023-03-08T00:14:20.930Z,6.20
2023-03-08T00:16:48.017Z,9.23
2023-03-08T00:19:14.989Z,14.30
2023-03-08T00:21:41.794Z,7.63
2023-03-08T00:24:08.742Z,9.43
2023-03-08T00:26:35.497Z,7.90
2023-03-08T00:29:02.376Z,8.33
2023-03-08T00:31:29.223Z,9.43
2023-03-08T00:33:56.015Z,9.23
2023-03-08T00:36:23.144Z,7.20
2023-03-08T00:38:51.206Z,10.57
2023-03-08T00:41:18.833Z,7.67
2023-03-08T00:43:46.017Z,7.80
2023-03-08T00:46:13.609Z,7.83
2023-03-08T00:48:41.230Z,8.07
2023-03-08T00:51:09.021Z,10.60
2023-03-08T00:53:35.788Z,9.03
2023-03-08T00:56:02.652Z,9.33
2023-03-08T00:58:31.010Z,8.93
2023-03-08T01:00:58.612Z,8.27
2023-03-08T01:03:26.298Z,7.60
2023-03-08T01:05:55.749Z,10.10
2023-03-08T01:08:23.868Z,9.67
2023-03-08T01:10:57.592Z,10.50
2023-03-08T01:13:26.847Z,9.57
2023-03-08T01:15:53.624Z,11.30
2023-03-08T01:18:20.376Z,10.00
2023-03-08T01:20:56.247Z,10.37
2023-03-08T01:23:22.959Z,12.47
2023-03-08T01:25:49.790Z,9.13
2023-03-08T01:28:16.540Z,9.03
2023-03-08T01:30:43.247Z,8.27
2023-03-08T01:33:10.049Z,12.40
2023-03-08T01:35:38.123Z,10.37
2023-03-08T01:38:04.862Z,9.50
2023-03-08T01:40:31.788Z,7.33
2023-03-08T01:42:58.598Z,8.17
2023-03-08T01:46:05.014Z,8.43
2023-03-08T01:48:53.029Z,11.83
2023-03-08T01:51:54.182Z,8.00
2023-03-08T01:54:23.424Z,11.10
2023-03-08T01:56:52.962Z,7.67
2023-03-08T01:59:22.480Z,8.53
2023-03-08T02:01:49.704Z,9.87
2023-03-08T02:04:16.778Z,9.23
2023-03-08T02:06:44.882Z,8.07
2023-03-08T02:09:12.572Z,7.90
2023-03-08T02:11:41.871Z,9.77
2023-03-08T02:14:08.689Z,8.97
2023-03-08T02:16:35.372Z,10.07
2023-03-08T02:19:06.002Z,9.03
2023-03-08T02:21:33.183Z,8.23
2023-03-08T02:24:07.691Z,8.63
2023-03-08T02:26:37.265Z,11.47
2023-03-08T02:29:04.000Z,7.47
2023-03-08T02:31:30.772Z,12.20
2023-03-08T02:33:57.571Z,9.43
2023-03-08T02:36:24.374Z,9.73
2023-03-08T02:38:51.133Z,11.50
2023-03-08T02:41:18.007Z,8.47
2023-03-08T02:43:44.890Z,7.83
2023-03-08T02:46:13.805Z,9.07
2023-03-08T02:48:40.672Z,8.57
2023-03-08T02:51:07.623Z,11.23
2023-03-08T02:53:34.312Z,8.07
2023-03-08T02:56:01.036Z,15.30
2023-03-08T02:58:27.741Z,10.20
2023-03-08T03:00:54.519Z,11.40
2023-03-08T03:03:21.269Z,9.00
2023-03-08T03:05:47.992Z,10.60
2023-03-08T03:08:14.672Z,11.50
2023-03-08T03:10:41.880Z,10.80
2023-03-08T03:13:08.684Z,8.90
2023-03-08T03:15:39.353Z,8.97
2023-03-08T03:18:06.246Z,9.50
2023-03-08T03:20:33.651Z,10.90
2023-03-08T03:23:00.502Z,10.33
2023-03-08T03:25:27.442Z,12.53
2023-03-08T03:27:55.319Z,9.57
2023-03-08T03:30:22.289Z,9.00
2023-03-08T03:32:49.009Z,9.10
2023-03-08T03:35:15.773Z,10.83
2023-03-08T03:37:42.496Z,9.83
2023-03-08T03:40:11.835Z,9.53
2023-03-08T03:42:38.619Z,10.83
2023-03-08T03:45:05.833Z,7.20
2023-03-08T03:47:32.670Z,9.47
2023-03-08T03:49:59.441Z,8.47
2023-03-08T03:52:26.216Z,9.00
2023-03-08T03:54:52.914Z,9.33
2023-03-08T03:57:20.906Z,11.00
2023-03-08T03:59:47.694Z,9.03
2023-03-08T04:02:14.446Z,11.00
2023-03-08T04:04:41.246Z,11.50
2023-03-08T04:07:07.992Z,9.77
2023-03-08T04:09:35.949Z,11.30
2023-03-08T04:12:05.660Z,9.20
2023-03-08T04:14:32.454Z,9.50
2023-03-08T04:16:59.135Z,9.20
2023-03-08T04:19:25.945Z,9.00
2023-03-08T04:21:52.776Z,10.23
2023-03-08T04:24:19.550Z,13.80
2023-03-08T04:26:46.347Z,12.00
2023-03-08T04:29:13.138Z,10.20
2023-03-08T04:31:39.990Z,12.63
2023-03-08T04:34:07.056Z,11.83
2023-03-08T04:36:34.290Z,9.43
2023-03-08T04:39:01.001Z,13.10
2023-03-08T04:41:27.782Z,15.57
2023-03-08T04:43:56.532Z,13.47
2023-03-08T04:46:27.897Z,13.17
2023-03-08T04:48:56.030Z,13.07
2023-03-08T04:51:26.867Z,11.70
2023-03-08T04:53:54.043Z,10.53
2023-03-08T04:56:21.143Z,9.10
2023-03-08T04:58:48.086Z,11.60
2023-03-08T05:01:20.417Z,9.73
2023-03-08T05:03:49.711Z,11.57
2023-03-08T05:06:16.667Z,8.33
2023-03-08T05:08:43.911Z,12.13
2023-03-08T05:11:17.781Z,11.10
2023-03-08T05:13:44.657Z,11.20
2023-03-08T05:16:11.401Z,9.07
2023-03-08T05:18:38.207Z,8.27
2023-03-08T05:21:07.454Z,11.57
2023-03-08T05:23:35.074Z,9.80
2023-03-08T05:26:03.828Z,9.70
2023-03-08T05:28:33.766Z,10.27
2023-03-08T05:31:13.426Z,10.57
2023-03-08T05:33:41.422Z,10.20
2023-03-08T05:36:08.616Z,12.20
2023-03-08T05:38:35.647Z,9.93
2023-03-08T05:41:04.927Z,10.40
2023-03-08T05:43:31.989Z,10.60
2023-03-08T05:46:18.530Z,11.57
2023-03-08T05:48:45.569Z,14.50
2023-03-08T05:51:16.094Z,11.20
2023-03-08T05:53:43.570Z,12.93
2023-03-08T05:56:13.306Z,15.87
2023-03-08T05:58:42.938Z,14.07
2023-03-08T06:01:16.862Z,11.80
2023-03-08T06:03:45.476Z,13.80
2023-03-08T06:06:12.678Z,14.80
2023-03-08T06:08:40.171Z,11.37
2023-03-08T06:11:07.992Z,12.37
2023-03-08T06:13:35.415Z,13.77
2023-03-08T06:16:02.626Z,11.67
2023-03-08T06:18:30.897Z,10.93
2023-03-08T06:21:03.083Z,13.43
2023-03-08T06:23:31.406Z,14.20
2023-03-08T06:25:58.909Z,12.07
2023-03-08T06:28:26.880Z,15.07
2023-03-08T06:30:54.027Z,14.10
2023-03-08T06:33:27.210Z,13.87
2023-03-08T06:36:05.933Z,15.07
2023-03-08T06:38:34.597Z,17.83
2023-03-08T06:41:02.789Z,14.67
2023-03-08T06:43:30.049Z,13.53
2023-03-08T06:45:57.046Z,10.90
2023-03-08T06:48:23.925Z,11.73
2023-03-08T06:50:51.407Z,13.03
2023-03-08T06:53:18.192Z,17.80
2023-03-08T06:55:45.020Z,13.67
2023-03-08T06:58:11.882Z,12.53
2023-03-08T07:00:39.256Z,13.70
2023-03-08T07:03:06.227Z,17.03
2023-03-08T07:05:33.352Z,16.17
2023-03-08T07:08:00.056Z,15.23
2023-03-08T07:10:27.420Z,15.40
2023-03-08T07:12:54.500Z,15.07
2023-03-08T07:15:26.810Z,15.93
2023-03-08T07:17:56.393Z,12.00
2023-03-08T07:20:24.942Z,13.67
2023-03-08T07:22:52.457Z,12.97
2023-03-08T07:25:21.523Z,19.77
2023-03-08T07:27:48.658Z,14.63
2023-03-08T07:30:16.771Z,13.90
2023-03-08T07:32:44.296Z,12.90
2023-03-08T07:35:13.555Z,15.90
2023-03-08T07:37:42.861Z,11.77
2023-03-08T07:40:11.407Z,13.30
2023-03-08T07:42:38.437Z,13.07
2023-03-08T07:45:05.978Z,16.53
2023-03-08T07:47:32.753Z,14.60
2023-03-08T07:50:00.688Z,13.40
2023-03-08T07:52:29.364Z,13.70
2023-03-08T07:54:56.471Z,18.43
2023-03-08T07:57:23.792Z,18.03
2023-03-08T07:59:53.373Z,13.97
2023-03-08T08:02:20.342Z,18.00
2023-03-08T08:04:48.462Z,14.77
2023-03-08T08:07:16.578Z,14.67
2023-03-08T08:09:43.535Z,14.00
2023-03-08T08:12:10.461Z,17.03
2023-03-08T08:14:37.354Z,15.50
2023-03-08T08:17:13.569Z,19.13
2023-03-08T08:19:40.261Z,12.87
2023-03-08T08:22:07.132Z,15.43
2023-03-08T08:24:34.003Z,16.23
2023-03-08T08:27:01.073Z,15.70
2023-03-08T08:29:28.207Z,18.53
2023-03-08T08:31:56.271Z,16.80
2023-03-08T08:34:23.537Z,13.87
2023-03-08T08:36:50.489Z,18.47
2023-03-08T08:39:17.339Z,12.90
2023-03-08T08:41:44.239Z,20.07
2023-03-08T08:44:11.008Z,16.57
2023-03-08T08:46:38.329Z,17.93
2023-03-08T08:49:05.615Z,13.97
2023-03-08T08:51:33.199Z,15.70
2023-03-08T08:54:00.286Z,13.77
2023-03-08T08:56:28.932Z,15.77
2023-03-08T08:58:57.597Z,19.90
2023-03-08T09:01:27.668Z,15.73
2023-03-08T09:03:55.453Z,16.40
2023-03-08T09:06:24.393Z,16.30
2023-03-08T09:08:52.677Z,13.63
2023-03-08T09:11:19.484Z,14.93
2023-03-08T09:13:46.346Z,16.30
2023-03-08T09:16:28.266Z,13.17
2023-03-08T09:18:56.920Z,12.97
2023-03-08T09:21:25.657Z,14.23
2023-03-08T09:23:52.817Z,11.00
2023-03-08T09:26:19.779Z,16.07
2023-03-08T09:28:49.100Z,12.30
2023-03-08T09:31:18.490Z,11.07
2023-03-08T09:33:52.202Z,11.83
2023-03-08T09:36:22.614Z,11.20
2023-03-08T09:38:50.630Z,11.47
2023-03-08T09:41:32.648Z,11.00
2023-03-08T09:44:25.975Z,13.50
2023-03-08T09:47:06.233Z,11.07
2023-03-08T09:49:35.700Z,13.47
2023-03-08T09:52:07.346Z,9.97
2023-03-08T09:54:38.626Z,11.07
2023-03-08T09:57:19.080Z,8.87
2023-03-08T09:59:54.692Z,20.53
2023-03-08T10:02:43.253Z,11.00
2023-03-08T10:05:32.279Z,9.70
2023-03-08T10:08:08.432Z,9.63
2023-03-08T10:11:00.697Z,8.53
2023-03-08T10:13:32.104Z,11.77
2023-03-08T10:16:25.067Z,9.87
2023-03-08T10:19:12.500Z,10.13
2023-03-08T10:21:41.860Z,8.27
2023-03-08T10:24:49.514Z,8.60
2023-03-08T10:27:20.002Z,12.43
2023-03-08T10:29:58.341Z,8.80
2023-03-08T10:32:26.777Z,8.47
2023-03-08T10:35:04.783Z,12.47
2023-03-08T10:37:33.407Z,12.67
2023-03-08T10:40:06.006Z,13.97
2023-03-08T10:42:35.291Z,9.33
2023-03-08T10:45:17.123Z,6.90
2023-03-08T10:47:55.293Z,6.50
2023-03-08T10:50:25.633Z,8.17
2023-03-08T10:52:52.564Z,6.10
2023-03-08T10:55:30.270Z,6.07
2023-03-08T10:58:01.246Z,7.17
2023-03-08T11:00:37.016Z,6.50
2023-03-08T11:03:17.217Z,5.73
2023-03-08T11:05:54.727Z,5.97
2023-03-08T11:08:31.241Z,8.47
2023-03-08T11:11:09.628Z,5.47
2023-03-08T11:13:39.515Z,8.23
2023-03-08T11:16:18.746Z,6.33
2023-03-08T11:18:50.461Z,6.67
2023-03-08T11:21:41.367Z,5.00
2023-03-08T11:24:36.543Z,6.63
2023-03-08T11:27:14.307Z,7.37
2023-03-08T11:30:01.900Z,6.30
2023-03-08T11:32:40.694Z,8.50
2023-03-08T11:35:26.708Z,5.53
2023-03-08T11:37:59.608Z,7.70
2023-03-08T11:40:47.859Z,5.53
2023-03-08T11:43:20.976Z,4.00
2023-03-08T11:46:09.660Z,3.60
2023-03-08T11:49:02.281Z,2.87
2023-03-08T11:51:45.548Z,3.93
2023-03-08T11:54:50.452Z,4.43
2023-03-08T11:57:18.534Z,5.03
2023-03-08T11:59:51.757Z,4.53
2023-03-08T12:02:20.675Z,3.00
2023-03-08T12:05:13.254Z,2.83
2023-03-08T12:07:43.230Z,3.37
2023-03-08T12:10:48.240Z,3.00
2023-03-08T12:13:36.769Z,2.47
2023-03-08T12:16:25.363Z,2.30
2023-03-08T12:18:59.253Z,1.90
2023-03-08T12:21:43.454Z,3.67
2023-03-08T12:24:13.399Z,2.03
2023-03-08T12:26:45.617Z,2.97
2023-03-08T12:29:25.833Z,2.10
2023-03-08T12:31:53.695Z,1.80
2023-03-08T12:34:36.103Z,2.10
2023-03-08T12:37:03.324Z,2.97
2023-03-08T12:39:35.455Z,2.30
2023-03-08T12:42:11.286Z,2.80
2023-03-08T12:44:39.531Z,2.13
2023-03-08T12:47:12.318Z,1.60
2023-03-08T12:49:45.077Z,1.47
2023-03-08T12:52:18.395Z,1.57
2023-03-08T12:55:00.803Z,1.33
2023-03-08T12:57:42.997Z,2.13
2023-03-08T13:00:31.443Z,1.30
2023-03-08T13:03:28.939Z,1.30
2023-03-08T13:05:56.728Z,3.20
2023-03-08T13:08:51.549Z,1.33
2023-03-08T13:11:18.381Z,1.47
2023-03-08T13:14:02.125Z,2.37
2023-03-08T13:16:39.657Z,1.20
2023-03-08T13:19:17.638Z,4.80
2023-03-08T13:21:56.997Z,2.33
2023-03-08T13:24:36.320Z,3.60
2023-03-08T13:27:21.510Z,3.80
2023-03-08T13:29:48.561Z,1.43
2023-03-08T13:32:24.309Z,1.53
2023-03-08T13:35:01.858Z,1.20
2023-03-08T13:37:30.155Z,1.20
2023-03-08T13:39:59.445Z,1.03
2023-03-08T13:42:28.769Z,1.20
2023-03-08T13:45:16.155Z,1.20
2023-03-08T13:47:46.048Z,2.73
2023-03-08T13:50:36.054Z,3.87
2023-03-08T13:53:09.212Z,2.07
2023-03-08T13:55:43.447Z,3.27
2023-03-08T13:58:25.582Z,1.00
2023-03-08T14:01:09.562Z,2.20
2023-03-08T14:03:36.709Z,2.30
2023-03-08T14:06:03.956Z,1.57
2023-03-08T14:08:30.789Z,3.33
2023-03-08T14:11:02.152Z,1.10
2023-03-08T14:13:38.416Z,3.93
2023-03-08T14:16:07.486Z,1.37
2023-03-08T14:18:43.433Z,1.43
2023-03-08T14:21:29.156Z,1.00
2023-03-08T14:24:00.765Z,1.13
2023-03-08T14:26:35.755Z,1.20
2023-03-08T14:29:23.256Z,1.10
2023-03-08T14:31:56.039Z,0.97
2023-03-08T14:34:47.979Z,1.33
2023-03-08T14:37:26.473Z,1.10
2023-03-08T14:39:56.539Z,1.20
2023-03-08T14:42:26.193Z,1.30
2023-03-08T14:45:36.947Z,2.27
2023-03-08T14:48:31.159Z,1.73
2023-03-08T14:51:02.564Z,0.90
2023-03-08T14:53:38.722Z,1.17
2023-03-08T14:56:13.335Z,1.33
2023-03-08T14:58:46.248Z,1.13
2023-03-08T15:01:13.047Z,1.47
2023-03-08T15:03:39.897Z,1.23
2023-03-08T15:06:21.108Z,1.17
2023-03-08T15:08:48.647Z,1.00
2023-03-08T15:11:15.906Z,1.40
2023-03-08T15:13:43.182Z,1.17
2023-03-08T15:16:13.251Z,1.17
2023-03-08T15:18:42.303Z,2.30
2023-03-08T15:21:20.930Z,0.90
2023-03-08T15:23:49.375Z,1.20
2023-03-08T15:26:23.079Z,1.23
2023-03-08T15:28:49.946Z,4.80
2023-03-08T15:31:16.884Z,1.77
2023-03-08T15:33:43.822Z,1.10
2023-03-08T15:36:14.835Z,1.97
2023-03-08T15:38:42.210Z,1.10
2023-03-08T15:41:16.735Z,1.40
2023-03-08T15:43:43.954Z,2.77
2023-03-08T15:46:13.324Z,1.20
2023-03-08T15:48:40.702Z,1.33
2023-03-08T15:51:17.829Z,1.43
2023-03-08T15:53:44.773Z,1.33
2023-03-08T15:56:11.829Z,1.20
2023-03-08T15:58:38.705Z,7.93
2023-03-08T16:01:06.603Z,1.17
2023-03-08T16:03:35.071Z,1.00
2023-03-08T16:06:02.979Z,1.30
2023-03-08T16:08:30.642Z,1.37
2023-03-08T16:11:03.701Z,1.70
2023-03-08T16:13:31.513Z,3.63
2023-03-08T16:15:59.789Z,1.00
2023-03-08T16:18:28.271Z,3.23
2023-03-08T16:20:55.057Z,1.50
2023-03-08T16:23:22.227Z,1.60
2023-03-08T16:26:15.132Z,1.70
2023-03-08T16:28:44.214Z,1.43
2023-03-08T16:31:11.198Z,1.70
2023-03-08T16:33:38.152Z,1.30
2023-03-08T16:36:05.228Z,1.10
2023-03-08T16:38:32.307Z,1.33
2023-03-08T16:41:12.781Z,1.07
2023-03-08T16:43:46.785Z,1.00
2023-03-08T16:46:20.429Z,1.87
2023-03-08T16:48:49.726Z,1.80
2023-03-08T16:51:19.316Z,2.07
2023-03-08T16:53:46.592Z,1.10
2023-03-08T16:56:25.391Z,2.27
2023-03-08T16:58:53.660Z,1.40
2023-03-08T17:01:20.567Z,1.10
2023-03-08T17:03:47.543Z,1.40
2023-03-08T17:06:19.316Z,1.20
2023-03-08T17:08:46.819Z,1.37
2023-03-08T17:11:39.977Z,1.40
2023-03-08T17:14:10.851Z,1.13
2023-03-08T17:16:37.928Z,2.10
2023-03-08T17:19:06.583Z,1.83
2023-03-08T17:21:38.254Z,2.20
2023-03-08T17:24:11.348Z,2.00
2023-03-08T17:26:42.595Z,2.33
2023-03-08T17:29:09.739Z,1.93
2023-03-08T17:31:36.643Z,2.43
2023-03-08T17:34:04.081Z,1.83
2023-03-08T17:36:31.026Z,1.50
2023-03-08T17:38:57.952Z,3.40
2023-03-08T17:41:24.996Z,2.10
2023-03-08T17:43:51.659Z,1.33
2023-03-08T17:46:24.028Z,1.20
2023-03-08T17:48:53.116Z,1.90
2023-03-08T17:51:22.792Z,1.67
2023-03-08T17:53:50.057Z,1.30
2023-03-08T17:56:20.219Z,1.10
2023-03-08T17:58:47.836Z,1.03
2023-03-08T18:01:23.206Z,1.63
2023-03-08T18:03:50.977Z,1.30
2023-03-08T18:06:27.102Z,1.43
2023-03-08T18:08:54.382Z,1.20
2023-03-08T18:11:21.734Z,2.40
2023-03-08T18:13:48.963Z,1.40
2023-03-08T18:16:15.732Z,1.30
2023-03-08T18:18:42.533Z,1.13
2023-03-08T18:21:13.928Z,1.67
2023-03-08T18:23:43.235Z,1.97
2023-03-08T18:26:11.637Z,1.27
2023-03-08T18:28:39.166Z,1.30
2023-03-08T18:31:08.072Z,1.50
2023-03-08T18:33:35.134Z,1.70
2023-03-08T18:36:02.398Z,1.20
2023-03-08T18:38:29.115Z,1.20
2023-03-08T18:40:55.915Z,1.70
2023-03-08T18:43:22.779Z,1.10
2023-03-08T18:45:55.100Z,1.00
2023-03-08T18:48:23.341Z,1.07
2023-03-08T18:50:50.273Z,1.87
2023-03-08T18:53:17.115Z,1.10
2023-03-08T18:55:55.125Z,1.00
2023-03-08T18:58:22.090Z,1.10
2023-03-08T19:00:48.995Z,2.77
2023-03-08T19:03:15.754Z,0.83
2023-03-08T19:05:42.995Z,1.10
2023-03-08T19:08:10.227Z,1.40
2023-03-08T19:10:40.412Z,1.00
2023-03-08T19:13:07.285Z,1.10
2023-03-08T19:15:38.383Z,1.40
2023-03-08T19:18:06.514Z,1.43
2023-03-08T19:20:40.419Z,1.10
2023-03-08T19:23:09.348Z,1.30
2023-03-08T19:25:58.160Z,1.90
2023-03-08T19:28:25.205Z,1.33
2023-03-08T19:30:52.058Z,1.10
2023-03-08T19:33:30.376Z,1.17
2023-03-08T19:35:58.593Z,2.23
2023-03-08T19:38:25.383Z,1.10
2023-03-08T19:40:52.198Z,1.57
2023-03-08T19:43:19.090Z,1.30
2023-03-08T19:45:49.770Z,3.67
2023-03-08T19:48:16.639Z,1.00
2023-03-08T19:50:46.681Z,1.80
2023-03-08T19:53:13.756Z,1.13
2023-03-08T19:55:51.662Z,1.13
2023-03-08T19:58:19.030Z,1.63
2023-03-08T20:00:46.744Z,1.10
2023-03-08T20:03:15.638Z,1.00
2023-03-08T20:05:45.038Z,0.80
2023-03-08T20:08:12.674Z,1.00
2023-03-08T20:10:39.761Z,1.00
2023-03-08T20:13:06.504Z,0.90
2023-03-08T20:15:33.235Z,1.30
2023-03-08T20:17:59.920Z,1.07
2023-03-08T20:20:26.850Z,1.20
2023-03-08T20:22:53.614Z,1.30
2023-03-08T20:25:20.359Z,1.30
2023-03-08T20:27:47.038Z,1.20
2023-03-08T20:30:14.681Z,1.50
2023-03-08T20:32:41.463Z,2.10
2023-03-08T20:35:14.962Z,1.23
2023-03-08T20:37:42.042Z,1.20
2023-03-08T20:40:11.992Z,1.03
2023-03-08T20:42:38.932Z,0.93
2023-03-08T20:45:06.918Z,1.10
2023-03-08T20:47:33.796Z,1.13
2023-03-08T20:50:00.559Z,1.23
2023-03-08T20:52:27.522Z,1.20
2023-03-08T20:54:55.442Z,1.73
2023-03-08T20:57:22.885Z,1.73
2023-03-08T20:59:50.378Z,1.30
2023-03-08T21:02:17.466Z,1.10
2023-03-08T21:04:44.457Z,1.20
2023-03-08T21:07:11.459Z,1.23
2023-03-08T21:09:38.223Z,1.67
2023-03-08T21:12:05.071Z,1.90
2023-03-08T21:14:31.825Z,1.60
2023-03-08T21:16:58.572Z,1.60
2023-03-08T21:19:25.387Z,1.90
2023-03-08T21:21:52.351Z,1.67
2023-03-08T21:24:21.217Z,1.50
2023-03-08T21:26:47.951Z,3.40
2023-03-08T21:29:17.661Z,3.57
2023-03-08T21:31:50.020Z,2.27
2023-03-08T21:34:17.648Z,6.23
2023-03-08T21:36:44.731Z,2.57
2023-03-08T21:39:11.993Z,1.53
2023-03-08T21:41:42.222Z,2.03
2023-03-08T21:44:18.093Z,1.70
2023-03-08T21:46:46.584Z,1.40
2023-03-08T21:49:19.106Z,3.07
2023-03-08T21:51:45.869Z,1.70
2023-03-08T21:54:12.841Z,2.00
2023-03-08T21:56:39.593Z,1.60
2023-03-08T21:59:06.995Z,16.37
2023-03-08T22:01:34.204Z,2.00
2023-03-08T22:04:02.903Z,2.13
2023-03-08T22:06:30.211Z,2.73
2023-03-08T22:08:57.274Z,2.20
2023-03-08T22:11:25.207Z,2.40
2023-03-08T22:13:54.355Z,3.50
2023-03-08T22:16:21.656Z,2.00
2023-03-08T22:18:51.237Z,3.20
2023-03-08T22:21:18.012Z,2.70
2023-03-08T22:23:44.941Z,2.90
2023-03-08T22:26:11.713Z,5.20
2023-03-08T22:28:38.509Z,2.80
2023-03-08T22:31:11.007Z,2.10
2023-03-08T22:33:38.386Z,2.27
2023-03-08T22:36:06.874Z,4.33
2023-03-08T22:38:34.115Z,4.70
2023-03-08T22:41:01.277Z,2.10
2023-03-08T22:43:28.378Z,2.27
2023-03-08T22:45:55.237Z,2.97
2023-03-08T22:48:21.972Z,2.20
2023-03-08T22:50:51.179Z,1.90
2023-03-08T22:53:23.013Z,4.03
2023-03-08T22:55:49.940Z,2.10
2023-03-08T22:58:16.719Z,2.40
2023-03-08T23:00:43.419Z,2.67
2023-03-08T23:03:10.869Z,3.13
2023-03-08T23:05:37.645Z,2.47
2023-03-08T23:08:06.229Z,1.87
2023-03-08T23:10:34.500Z,7.83
2023-03-08T23:13:01.344Z,3.03
2023-03-08T23:15:28.883Z,3.07
2023-03-08T23:17:55.551Z,1.53
2023-03-08T23:20:22.869Z,1.73
2023-03-08T23:22:50.925Z,1.80
2023-03-08T23:25:18.408Z,1.13
2023-03-08T23:27:45.186Z,1.40
2023-03-08T23:30:15.362Z,1.70
2023-03-08T23:32:45.096Z,2.03
2023-03-08T23:35:12.584Z,1.63
2023-03-08T23:37:40.361Z,1.50
2023-03-08T23:40:10.784Z,1.60
2023-03-08T23:42:38.087Z,1.53
2023-03-08T23:45:06.149Z,1.70
2023-03-08T23:47:33.411Z,1.70
2023-03-08T23:50:00.391Z,1.57
2023-03-08T23:52:27.390Z,2.13
2023-03-08T23:54:54.250Z,5.63
2023-03-08T23:57:21.073Z,5.63
2023-03-08T23:59:48.095Z,4.73
